EGKKTAPA

Guest
Details From EGKK - London Gatwick
To TAPA - Antigua - V C Bird Intl
Flight Number -
Tags Generated
Created
Modified
Stats Distance 3,545 nm / 6,566 km
Max Altitude 0 ft / 0 m
Waypoints 4
Social Downloads 6
Likes 0
Share VATSIM

Download

Looking for another format? Having issues loading an existing format? Contact us
Advertisement - Login to hide

Notes

Generated

Route

EGKK RIDGI ANU52 TAPA

ID Type Via Altitude Latitude Longitude Leg Dist Tot Dist Heading (true) Name
O EGKK APT - 0 ft / 0 m 51.14691˚ -0.21257˚ - 0 nm - -
RIDGI FIX - 0 ft / 0 m 50.27083˚ -5.99139˚ 225 nm 225 nm 259° / 254° -
ANU52 FIX - 0 ft / 0 m 17.28189˚ -61.66863˚ 3307 nm 3533 nm 254° / 220° -
O TAPA APT - 0 ft / 0 m 17.13024˚ -61.80367˚ 11 nm 3545 nm 220° / 220° -

Altitude Profile

Advertisement - Login to hide

Weather


0- 5 10 15 20 25 30 35+ Temperature / ° C

Clouds and Precipitation
Forecast for 2017-12-13 00:00 UTC. Updated 9 minutes ago

Ground ~20,000 ft ~40,000 ft Winds

EGKK

Details ICAO EGKK (LGW)
Name London Gatwick
Region United Kingdom
Timezone Europe/London (UTC+0.0)
Stats Elevation 196 ft / 60 m (AMSL)
Location 51.148753° -0.192472°
Runways 2
Magnetic Variation 0.433° W

METAR

EGKK 122320Z 21006KT 9999 -RA BKN023 BKN029 07/05 Q1006

Decode

TAF

TAF AMD EGKK 122020Z 1220/1324 19006KT 9999 SCT030 TEMPO 1220/1224 8000 RA BKN012 BECMG 1300/1303 BKN012 TEMPO 1300/1305 19015G25KT 6000 RA BKN008 PROB30 TEMPO 1300/1305 3000 RADZ BKN004 BECMG 1305/1308 BKN030 TEMPO 1310/1316 7000 SHRA PROB40 TEMPO 1313/1316 26015G28KT 4000 +SHRA BKN014 TEMPO 1320/1324 26015G30KT 7000 SHRA PROB40 TEMPO 1320/1322 4000 +SHRA BKN014

Decode

Departure Runways

ID Width Length Bearing (true) Bearing (mag) Surface Threshold Offset Overrun Length
08L 148 ft / 45 m 8,377 ft / 2,553 m 77.69° 78.12° Asphalt 1,053 ft / 321 m 0 ft / 0 m
08R 148 ft / 45 m 10,341 ft / 3,152 m 77.59° 78.02° Asphalt 1,289 ft / 393 m 0 ft / 0 m
26L 148 ft / 45 m 10,341 ft / 3,152 m 257.63° 258.06° Asphalt 879 ft / 268 m 600 ft / 183 m
26R 148 ft / 45 m 8,377 ft / 2,553 m 257.71° 258.14° Asphalt 1,365 ft / 416 m 0 ft / 0 m

TAPA

Details ICAO TAPA (ANU)
Name Antigua - V C Bird Intl
Region Antigua and Barbuda
Timezone America/Antigua (UTC-4.0)
Stats Elevation 62 ft / 19 m (AMSL)
Location 17.136737° -61.792662°
Runways 1
Magnetic Variation 14.767° W

METAR

TAPA 122300Z 00000KT 9999 FEW018 25/21 Q1013 NOSIG

Decode

TAF

TAF TAPA 120500Z 1212/1312 14007KT 9999 SCT018 PROB30 TEMPO 1212/1216 SHRA

Decode

Destination Runways

ID Width Length Bearing (true) Bearing (mag) Surface Threshold Offset Overrun Length
07 148 ft / 45 m 9,022 ft / 2,750 m 58.28° 73.05° Asphalt 656 ft / 200 m 0 ft / 0 m
25 148 ft / 45 m 9,022 ft / 2,750 m 238.29° 253.06° Asphalt 0 ft / 0 m 0 ft / 0 m

Popular Alternatives